createdAt,value
2018-09-11T00:00:49.877Z,2.90
2018-09-11T00:03:18.172Z,2.60
2018-09-11T00:05:46.438Z,2.67
2018-09-11T00:08:14.707Z,2.60
2018-09-11T00:10:42.976Z,2.73
2018-09-11T00:13:11.303Z,2.80
2018-09-11T00:15:39.559Z,2.73
2018-09-11T00:18:07.865Z,2.60
2018-09-11T00:20:36.144Z,2.70
2018-09-11T00:23:04.420Z,2.50
2018-09-11T00:25:32.695Z,2.43
2018-09-11T00:28:00.951Z,2.30
2018-09-11T00:30:29.231Z,2.50
2018-09-11T00:32:57.484Z,2.43
2018-09-11T00:35:25.739Z,2.30
2018-09-11T00:37:54.022Z,2.60
2018-09-11T00:40:22.293Z,2.40
2018-09-11T00:42:50.566Z,2.50
2018-09-11T00:45:18.831Z,2.70
2018-09-11T00:47:47.100Z,3.03
2018-09-11T00:50:15.339Z,2.40
2018-09-11T00:52:43.613Z,2.53
2018-09-11T00:55:11.915Z,2.90
2018-09-11T00:57:40.168Z,2.33
2018-09-11T01:00:08.458Z,2.40
2018-09-11T01:02:36.714Z,2.53
2018-09-11T01:05:04.972Z,2.50
2018-09-11T01:07:35.551Z,2.57
2018-09-11T01:10:05.651Z,2.80
2018-09-11T01:12:33.919Z,2.90
2018-09-11T01:15:02.304Z,2.63
2018-09-11T01:17:30.572Z,2.50
2018-09-11T01:19:58.916Z,2.73
2018-09-11T01:22:27.498Z,2.60
2018-09-11T01:24:55.839Z,2.90
2018-09-11T01:27:24.128Z,2.70
2018-09-11T01:29:52.444Z,2.60
2018-09-11T01:32:20.940Z,2.67
2018-09-11T01:34:49.224Z,2.63
2018-09-11T01:37:17.500Z,2.50
2018-09-11T01:39:45.740Z,2.70
2018-09-11T01:42:14.012Z,3.07
2018-09-11T01:44:42.504Z,2.67
2018-09-11T01:47:10.771Z,2.80
2018-09-11T01:49:39.056Z,2.67
2018-09-11T01:52:07.322Z,2.90
2018-09-11T01:54:35.639Z,3.13
2018-09-11T01:57:03.902Z,3.03
2018-09-11T01:59:32.151Z,2.80
2018-09-11T02:02:00.497Z,3.03
2018-09-11T02:04:28.747Z,2.90
2018-09-11T02:06:56.997Z,2.80
2018-09-11T02:09:25.265Z,3.00
2018-09-11T02:11:53.541Z,2.93
2018-09-11T02:14:21.820Z,3.00
2018-09-11T02:16:50.079Z,2.73
2018-09-11T02:19:18.332Z,3.20
2018-09-11T02:21:46.899Z,3.30
2018-09-11T02:24:15.153Z,3.30
2018-09-11T02:26:43.433Z,2.93
2018-09-11T02:29:11.701Z,2.90
2018-09-11T02:31:39.957Z,2.90
2018-09-11T02:34:08.393Z,2.90
2018-09-11T02:36:36.677Z,2.77
2018-09-11T02:39:07.531Z,3.40
2018-09-11T02:41:35.793Z,2.87
2018-09-11T02:44:04.065Z,2.77
2018-09-11T02:46:32.331Z,2.97
2018-09-11T02:49:00.593Z,2.90
2018-09-11T02:51:28.894Z,2.97
2018-09-11T02:53:58.038Z,3.47
2018-09-11T02:56:26.350Z,3.07
2018-09-11T02:58:54.619Z,2.90
2018-09-11T03:01:23.006Z,3.00
2018-09-11T03:03:51.262Z,2.90
2018-09-11T03:06:19.897Z,3.13
2018-09-11T03:08:48.163Z,3.50
2018-09-11T03:11:16.451Z,2.97
2018-09-11T03:13:44.733Z,3.17
2018-09-11T03:16:13.008Z,2.90
2018-09-11T03:18:41.276Z,3.10
2018-09-11T03:21:09.515Z,3.37
2018-09-11T03:23:37.779Z,3.37
2018-09-11T03:26:06.114Z,3.50
2018-09-11T03:28:34.592Z,3.20
2018-09-11T03:31:02.911Z,3.10
2018-09-11T03:33:31.190Z,3.50
2018-09-11T03:35:59.465Z,3.43
2018-09-11T03:38:27.739Z,3.30
2018-09-11T03:40:56.029Z,3.73
2018-09-11T03:43:24.299Z,3.67
2018-09-11T03:45:52.560Z,3.50
2018-09-11T03:48:21.805Z,3.13
2018-09-11T03:50:51.098Z,3.10
2018-09-11T03:53:19.415Z,3.27
2018-09-11T03:55:48.068Z,3.40
2018-09-11T03:58:17.359Z,3.40
2018-09-11T04:00:45.657Z,3.50
2018-09-11T04:03:13.910Z,3.13
2018-09-11T04:05:42.214Z,3.00
2018-09-11T04:08:10.499Z,3.30
2018-09-11T04:10:38.778Z,3.17
2018-09-11T04:13:07.047Z,3.37
2018-09-11T04:15:36.390Z,3.13
2018-09-11T04:18:04.849Z,2.90
2018-09-11T04:20:33.124Z,3.47
2018-09-11T04:23:01.441Z,3.47
2018-09-11T04:25:29.714Z,3.27
2018-09-11T04:27:57.993Z,3.60
2018-09-11T04:30:26.260Z,3.53
2018-09-11T04:32:54.645Z,3.30
2018-09-11T04:35:22.941Z,3.40
2018-09-11T04:37:51.205Z,3.27
2018-09-11T04:40:19.498Z,3.60
2018-09-11T04:42:47.803Z,3.30
2018-09-11T04:45:16.024Z,4.03
2018-09-11T04:47:44.297Z,3.63
2018-09-11T04:50:12.560Z,4.00
2018-09-11T04:52:40.859Z,4.13
2018-09-11T04:55:09.140Z,4.37
2018-09-11T04:57:37.456Z,4.17
2018-09-11T05:00:05.763Z,4.30
2018-09-11T05:02:34.057Z,4.53
2018-09-11T05:05:02.385Z,4.70
2018-09-11T05:07:30.663Z,4.90
2018-09-11T05:09:58.944Z,4.33
2018-09-11T05:12:27.178Z,4.77
2018-09-11T05:14:55.460Z,4.33
2018-09-11T05:17:23.725Z,4.53
2018-09-11T05:19:51.975Z,4.30
2018-09-11T05:22:20.237Z,4.70
2018-09-11T05:24:48.541Z,5.30
2018-09-11T05:27:16.867Z,4.87
2018-09-11T05:29:45.067Z,5.00
2018-09-11T05:32:13.364Z,5.50
2018-09-11T05:34:41.633Z,5.30
2018-09-11T05:37:09.891Z,5.23
2018-09-11T05:39:38.181Z,5.37
2018-09-11T05:42:06.486Z,5.13
2018-09-11T05:44:34.821Z,5.20
2018-09-11T05:47:03.168Z,5.50
2018-09-11T05:49:31.453Z,5.47
2018-09-11T05:51:59.726Z,5.00
2018-09-11T05:54:28.033Z,4.77
2018-09-11T05:56:56.304Z,5.63
2018-09-11T05:59:24.557Z,5.10
2018-09-11T06:01:52.877Z,4.80
2018-09-11T06:04:21.148Z,5.90
2018-09-11T06:06:49.529Z,4.70
2018-09-11T06:09:17.842Z,4.50
2018-09-11T06:11:46.123Z,4.93
2018-09-11T06:14:14.391Z,5.00
2018-09-11T06:16:42.681Z,5.00
2018-09-11T06:19:10.949Z,5.63
2018-09-11T06:21:39.248Z,5.43
2018-09-11T06:24:07.531Z,5.27
2018-09-11T06:26:35.845Z,5.87
2018-09-11T06:29:05.159Z,5.97
2018-09-11T06:31:33.420Z,5.70
2018-09-11T06:34:01.773Z,5.90
2018-09-11T06:36:30.049Z,5.07
2018-09-11T06:38:58.317Z,4.70
2018-09-11T06:41:26.579Z,4.90
2018-09-11T06:43:54.825Z,5.33
2018-09-11T06:46:23.099Z,5.00
2018-09-11T06:48:51.375Z,4.97
2018-09-11T06:51:19.627Z,4.80
2018-09-11T06:53:47.895Z,4.57
2018-09-11T06:56:16.169Z,5.20
2018-09-11T06:58:44.483Z,4.90
2018-09-11T07:01:12.757Z,4.57
2018-09-11T07:03:41.036Z,4.40
2018-09-11T07:06:09.334Z,4.20
2018-09-11T07:08:37.668Z,4.10
2018-09-11T07:11:06.131Z,4.30
2018-09-11T07:13:35.497Z,4.20
2018-09-11T07:16:03.767Z,4.47
2018-09-11T07:18:32.104Z,3.87
2018-09-11T07:21:00.363Z,3.83
2018-09-11T07:23:28.612Z,3.47
2018-09-11T07:25:56.930Z,3.57
2018-09-11T07:28:25.931Z,3.70
2018-09-11T07:30:54.215Z,3.77
2018-09-11T07:33:22.526Z,4.03
2018-09-11T07:35:50.891Z,3.57
2018-09-11T07:38:19.152Z,4.00
2018-09-11T07:40:47.418Z,3.70
2018-09-11T07:43:15.681Z,3.83
2018-09-11T07:45:43.964Z,4.00
2018-09-11T07:48:12.240Z,4.10
2018-09-11T07:50:40.694Z,3.43
2018-09-11T07:53:08.990Z,3.83
2018-09-11T07:55:37.260Z,4.23
2018-09-11T07:58:05.604Z,4.00
2018-09-11T08:00:33.809Z,4.00
2018-09-11T08:03:02.107Z,3.80
2018-09-11T08:05:30.380Z,3.40
2018-09-11T08:07:58.668Z,3.80
2018-09-11T08:10:26.936Z,3.20
2018-09-11T08:12:55.362Z,3.43
2018-09-11T08:15:23.641Z,3.50
2018-09-11T08:17:51.933Z,4.00
2018-09-11T08:20:20.260Z,3.70
2018-09-11T08:22:48.583Z,3.73
2018-09-11T08:25:16.872Z,3.80
2018-09-11T08:27:45.160Z,3.50
2018-09-11T08:30:13.460Z,3.37
2018-09-11T08:32:41.753Z,3.53
2018-09-11T08:35:10.083Z,3.90
2018-09-11T08:37:38.352Z,3.77
2018-09-11T08:40:06.870Z,3.27
2018-09-11T08:42:35.166Z,3.87
2018-09-11T08:45:03.550Z,3.53
2018-09-11T08:47:31.848Z,3.20
2018-09-11T08:50:00.149Z,3.53
2018-09-11T08:52:28.487Z,3.13
2018-09-11T08:54:56.705Z,3.67
2018-09-11T08:57:24.980Z,3.30
2018-09-11T08:59:53.357Z,3.30
2018-09-11T09:02:21.641Z,3.60
2018-09-11T09:04:49.909Z,3.33
2018-09-11T09:07:18.189Z,3.47
2018-09-11T09:09:46.465Z,2.80
2018-09-11T09:12:14.737Z,3.13
2018-09-11T09:14:43.016Z,3.23
2018-09-11T09:17:11.325Z,3.50
2018-09-11T09:19:40.197Z,3.23
2018-09-11T09:22:08.481Z,2.80
2018-09-11T09:24:36.836Z,2.97
2018-09-11T09:27:05.487Z,3.00
2018-09-11T09:29:33.755Z,2.90
2018-09-11T09:32:02.032Z,2.80
2018-09-11T09:34:30.322Z,2.70
2018-09-11T09:36:58.655Z,2.73
2018-09-11T09:39:26.874Z,2.83
2018-09-11T09:41:55.172Z,2.70
2018-09-11T09:44:23.469Z,2.57
2018-09-11T09:46:51.769Z,2.83
2018-09-11T09:49:20.115Z,3.67
2018-09-11T09:51:48.397Z,25.23
2018-09-11T09:54:16.656Z,17.63
2018-09-11T09:56:44.935Z,15.27
2018-09-11T09:59:13.236Z,12.23
2018-09-11T10:01:46.953Z,5.80
2018-09-11T10:04:15.258Z,6.47
2018-09-11T10:06:43.537Z,3.90
2018-09-11T10:09:12.790Z,4.37
2018-09-11T10:11:41.155Z,5.10
2018-09-11T10:14:09.421Z,4.13
2018-09-11T10:16:37.801Z,5.30
2018-09-11T10:19:06.104Z,4.63
2018-09-11T10:21:34.386Z,3.93
2018-09-11T10:24:02.744Z,4.07
2018-09-11T10:26:31.014Z,3.20
2018-09-11T10:28:59.356Z,3.67
2018-09-11T10:31:27.784Z,3.47
2018-09-11T10:33:56.109Z,3.10
2018-09-11T10:36:24.794Z,2.93
2018-09-11T10:38:53.060Z,2.50
2018-09-11T10:41:21.312Z,2.70
2018-09-11T10:43:49.583Z,2.60
2018-09-11T10:46:18.914Z,3.03
2018-09-11T10:48:47.248Z,3.20
2018-09-11T10:51:15.463Z,2.73
2018-09-11T10:53:43.726Z,2.77
2018-09-11T10:56:12.009Z,2.70
2018-09-11T10:58:40.286Z,2.47
2018-09-11T11:01:08.565Z,2.63
2018-09-11T11:03:36.881Z,2.43
2018-09-11T11:06:05.157Z,2.47
2018-09-11T11:08:33.451Z,2.60
2018-09-11T11:11:01.733Z,2.20
2018-09-11T11:13:29.993Z,2.47
2018-09-11T11:15:58.262Z,2.43
2018-09-11T11:18:26.547Z,2.30
2018-09-11T11:20:54.819Z,2.40
2018-09-11T11:23:23.129Z,2.40
2018-09-11T11:25:51.435Z,2.50
2018-09-11T11:28:19.744Z,2.40
2018-09-11T11:30:48.001Z,2.43
2018-09-11T11:33:16.275Z,2.30
2018-09-11T11:35:44.569Z,2.53
2018-09-11T11:38:12.847Z,2.40
2018-09-11T11:40:41.091Z,2.37
2018-09-11T11:43:09.377Z,2.20
2018-09-11T11:45:38.680Z,2.10
2018-09-11T11:48:06.992Z,2.03
2018-09-11T11:50:35.257Z,2.30
2018-09-11T11:53:03.555Z,2.20
2018-09-11T11:55:31.837Z,2.10
2018-09-11T11:58:00.128Z,2.33
2018-09-11T12:00:28.435Z,2.40
2018-09-11T12:02:56.709Z,2.23
2018-09-11T12:05:24.993Z,2.20
2018-09-11T12:07:53.310Z,2.50
2018-09-11T12:10:21.531Z,2.17
2018-09-11T12:12:49.829Z,2.23
2018-09-11T12:15:18.146Z,2.17
2018-09-11T12:17:46.435Z,2.13
2018-09-11T12:20:14.707Z,2.27
2018-09-11T12:22:43.063Z,2.57
2018-09-11T12:25:11.360Z,2.27
2018-09-11T12:27:39.671Z,2.53
2018-09-11T12:30:08.019Z,2.27
2018-09-11T12:32:36.303Z,2.23
2018-09-11T12:35:04.660Z,2.20
2018-09-11T12:37:32.906Z,2.17
2018-09-11T12:40:01.191Z,2.37
2018-09-11T12:42:29.499Z,2.20
2018-09-11T12:44:57.824Z,2.20
2018-09-11T12:47:26.671Z,2.30
2018-09-11T12:49:54.606Z,2.17
2018-09-11T12:52:23.009Z,2.10
2018-09-11T12:54:51.458Z,2.20
2018-09-11T12:57:19.728Z,2.10
2018-09-11T12:59:48.055Z,2.50
2018-09-11T13:02:16.530Z,2.20
2018-09-11T13:04:44.787Z,1.83
2018-09-11T13:07:13.104Z,2.00
2018-09-11T13:09:42.173Z,2.40
2018-09-11T13:12:11.089Z,2.07
2018-09-11T13:14:39.455Z,2.23
2018-09-11T13:17:07.778Z,2.10
2018-09-11T13:19:36.242Z,2.37
2018-09-11T13:22:04.563Z,2.20
2018-09-11T13:24:32.940Z,2.33
2018-09-11T13:27:01.242Z,2.30
2018-09-11T13:29:29.520Z,2.40
2018-09-11T13:31:57.822Z,2.30
2018-09-11T13:34:26.150Z,2.10
2018-09-11T13:36:54.455Z,2.00
2018-09-11T13:39:22.733Z,2.37
2018-09-11T13:41:51.084Z,2.53
2018-09-11T13:44:19.375Z,2.37
2018-09-11T13:46:47.733Z,2.30
2018-09-11T13:49:16.102Z,1.90
2018-09-11T13:51:44.527Z,2.40
2018-09-11T13:54:12.851Z,2.30
2018-09-11T13:56:41.142Z,2.20
2018-09-11T13:59:09.415Z,2.60
2018-09-11T14:01:37.700Z,2.73
2018-09-11T14:04:06.002Z,2.80
2018-09-11T14:06:34.272Z,2.50
2018-09-11T14:09:02.576Z,2.27
2018-09-11T14:11:30.885Z,2.40
2018-09-11T14:13:59.170Z,2.33
2018-09-11T14:16:27.450Z,3.10
2018-09-11T14:18:55.728Z,2.53
2018-09-11T14:21:24.085Z,2.40
2018-09-11T14:23:52.355Z,2.23
2018-09-11T14:26:20.676Z,2.30
2018-09-11T14:28:48.958Z,2.37
2018-09-11T14:31:17.249Z,2.60
2018-09-11T14:33:45.537Z,2.43
2018-09-11T14:36:13.836Z,2.30
2018-09-11T14:38:42.248Z,2.80
2018-09-11T14:41:10.532Z,2.37
2018-09-11T14:43:39.812Z,2.27
2018-09-11T14:46:08.072Z,2.73
2018-09-11T14:48:36.723Z,2.40
2018-09-11T14:51:05.188Z,2.70
2018-09-11T14:53:33.475Z,2.50
2018-09-11T14:56:01.756Z,2.63
2018-09-11T14:58:30.016Z,2.87
2018-09-11T15:00:58.312Z,2.40
2018-09-11T15:03:26.647Z,3.23
2018-09-11T15:05:54.952Z,2.50
2018-09-11T15:08:23.237Z,2.83
2018-09-11T15:10:51.602Z,3.07
2018-09-11T15:13:20.184Z,3.27
2018-09-11T15:15:48.528Z,2.60
2018-09-11T15:18:16.822Z,2.73
2018-09-11T15:20:45.085Z,2.60
2018-09-11T15:23:13.572Z,2.90
2018-09-11T15:25:41.887Z,2.60
2018-09-11T15:28:10.228Z,2.77
2018-09-11T15:30:38.519Z,2.37
2018-09-11T15:33:07.124Z,2.73
2018-09-11T15:35:35.424Z,2.60
2018-09-11T15:38:03.710Z,2.47
2018-09-11T15:40:32.012Z,2.60
2018-09-11T15:43:00.288Z,2.50
2018-09-11T15:45:28.911Z,3.00
2018-09-11T15:47:57.237Z,2.60
2018-09-11T15:50:25.593Z,2.80
2018-09-11T15:52:53.882Z,2.70
2018-09-11T15:55:22.171Z,2.50
2018-09-11T15:57:50.452Z,2.40
2018-09-11T16:00:18.768Z,2.27
2018-09-11T16:02:47.229Z,2.60
2018-09-11T16:05:15.537Z,2.97
2018-09-11T16:07:43.848Z,2.37
2018-09-11T16:10:12.122Z,2.60
2018-09-11T16:12:40.380Z,3.50
2018-09-11T16:15:08.701Z,4.10
2018-09-11T16:17:36.980Z,3.60
2018-09-11T16:20:06.227Z,3.00
2018-09-11T16:22:34.504Z,2.90
2018-09-11T16:25:03.033Z,2.70
2018-09-11T16:27:31.314Z,2.80
2018-09-11T16:29:59.638Z,3.00
2018-09-11T16:32:28.117Z,2.90
2018-09-11T16:34:56.440Z,2.57
2018-09-11T16:37:24.721Z,2.67
2018-09-11T16:39:52.959Z,2.53
2018-09-11T16:42:21.269Z,2.73
2018-09-11T16:44:49.757Z,2.53
2018-09-11T16:47:18.075Z,2.47
2018-09-11T16:49:46.373Z,2.57
2018-09-11T16:52:14.657Z,2.70
2018-09-11T16:54:42.932Z,2.40
2018-09-11T16:57:11.195Z,2.80
2018-09-11T16:59:39.474Z,2.67
2018-09-11T17:02:07.915Z,2.53
2018-09-11T17:04:36.747Z,2.73
2018-09-11T17:07:05.061Z,2.80
2018-09-11T17:09:33.736Z,2.87
2018-09-11T17:12:02.120Z,2.73
2018-09-11T17:14:30.437Z,2.53
2018-09-11T17:16:58.717Z,2.70
2018-09-11T17:19:27.136Z,2.60
2018-09-11T17:21:55.736Z,2.50
2018-09-11T17:24:24.768Z,2.67
2018-09-11T17:26:53.065Z,2.63
2018-09-11T17:29:21.381Z,2.83
2018-09-11T17:31:49.677Z,2.47
2018-09-11T17:34:17.976Z,2.77
2018-09-11T17:36:46.273Z,2.50
2018-09-11T17:39:14.557Z,2.70
2018-09-11T17:41:42.858Z,2.60
2018-09-11T17:44:11.582Z,2.47
2018-09-11T17:46:39.853Z,2.90
2018-09-11T17:49:08.162Z,2.57
2018-09-11T17:51:36.959Z,2.90
2018-09-11T17:54:05.339Z,2.60
2018-09-11T17:56:33.681Z,2.80
2018-09-11T17:59:01.963Z,2.80
2018-09-11T18:01:31.222Z,2.33
2018-09-11T18:03:59.837Z,2.57
2018-09-11T18:06:28.388Z,2.73
2018-09-11T18:08:56.993Z,2.83
2018-09-11T18:11:25.315Z,2.87
2018-09-11T18:13:53.951Z,2.50
2018-09-11T18:16:22.343Z,2.90
2018-09-11T18:18:50.681Z,2.70
2018-09-11T18:21:18.983Z,2.50
2018-09-11T18:23:47.326Z,2.97
2018-09-11T18:26:15.845Z,3.10
2018-09-11T18:28:44.163Z,3.07
2018-09-11T18:31:12.841Z,2.73
2018-09-11T18:33:41.189Z,3.33
2018-09-11T18:36:09.500Z,3.10
2018-09-11T18:38:37.861Z,3.03
2018-09-11T18:41:06.317Z,3.20
2018-09-11T18:43:34.714Z,2.80
2018-09-11T18:46:03.086Z,2.40
2018-09-11T18:48:31.520Z,2.60
2018-09-11T18:50:59.866Z,2.90
2018-09-11T18:53:28.623Z,2.90
2018-09-11T18:55:56.969Z,2.83
2018-09-11T18:58:25.379Z,2.80
2018-09-11T19:00:54.735Z,2.63
2018-09-11T19:03:23.128Z,3.17
2018-09-11T19:05:51.465Z,3.00
2018-09-11T19:08:20.695Z,2.90
2018-09-11T19:10:49.056Z,2.47
2018-09-11T19:13:17.449Z,2.77
2018-09-11T19:15:46.411Z,2.60
2018-09-11T19:18:16.213Z,2.70
2018-09-11T19:20:44.905Z,2.40
2018-09-11T19:23:13.613Z,2.60
2018-09-11T19:25:42.092Z,2.90
2018-09-11T19:28:11.177Z,3.00
2018-09-11T19:30:39.586Z,2.50
2018-09-11T19:33:07.925Z,2.60
2018-09-11T19:35:36.340Z,2.90
2018-09-11T19:38:05.274Z,2.50
2018-09-11T19:40:34.542Z,2.80
2018-09-11T19:43:03.628Z,2.70
2018-09-11T19:45:32.002Z,2.70
2018-09-11T19:48:00.537Z,2.80
2018-09-11T19:50:28.953Z,2.50
2018-09-11T19:52:58.265Z,2.80
2018-09-11T19:55:26.644Z,2.80
2018-09-11T19:57:55.053Z,3.00
2018-09-11T20:00:23.392Z,2.83
2018-09-11T20:02:51.759Z,2.60
2018-09-11T20:05:20.153Z,2.80
2018-09-11T20:07:48.771Z,2.80
2018-09-11T20:10:17.157Z,2.63
2018-09-11T20:12:45.535Z,3.20
2018-09-11T20:15:14.861Z,2.87
2018-09-11T20:17:43.229Z,2.50
2018-09-11T20:20:11.901Z,2.97
2018-09-11T20:22:40.271Z,2.90
2018-09-11T20:25:08.579Z,2.93
2018-09-11T20:27:36.921Z,2.60
2018-09-11T20:30:05.255Z,2.60
2018-09-11T20:32:33.712Z,3.10
2018-09-11T20:35:03.195Z,2.70
2018-09-11T20:37:31.610Z,2.77
2018-09-11T20:39:59.910Z,2.80
2018-09-11T20:42:28.253Z,3.30
2018-09-11T20:44:56.602Z,2.97
2018-09-11T20:47:24.838Z,3.27
2018-09-11T20:49:53.122Z,2.80
2018-09-11T20:52:21.450Z,3.50
2018-09-11T20:54:49.751Z,3.27
2018-09-11T20:57:18.044Z,3.00
2018-09-11T20:59:46.294Z,3.60
2018-09-11T21:02:14.566Z,2.90
2018-09-11T21:04:42.873Z,3.30
2018-09-11T21:07:11.155Z,2.90
2018-09-11T21:09:39.440Z,3.00
2018-09-11T21:12:07.751Z,3.30
2018-09-11T21:14:36.039Z,3.33
2018-09-11T21:17:04.345Z,3.47
2018-09-11T21:19:32.608Z,3.30
2018-09-11T21:22:01.107Z,3.17
2018-09-11T21:24:29.472Z,3.20
2018-09-11T21:26:57.758Z,3.20
2018-09-11T21:29:26.054Z,3.00
2018-09-11T21:31:54.360Z,3.20
2018-09-11T21:34:23.018Z,2.90
2018-09-11T21:36:51.357Z,2.90
2018-09-11T21:39:19.655Z,3.00
2018-09-11T21:41:47.930Z,3.10
2018-09-11T21:44:16.217Z,2.87
2018-09-11T21:46:44.508Z,3.20
2018-09-11T21:49:12.784Z,3.43
2018-09-11T21:51:41.078Z,2.67
2018-09-11T21:54:09.364Z,3.23
2018-09-11T21:56:37.682Z,3.10
2018-09-11T21:59:05.952Z,3.10
2018-09-11T22:01:39.492Z,3.10
2018-09-11T22:04:07.752Z,2.87
2018-09-11T22:06:36.111Z,3.37
2018-09-11T22:09:06.243Z,3.13
2018-09-11T22:11:34.527Z,3.00
2018-09-11T22:14:02.839Z,2.90
2018-09-11T22:16:31.100Z,3.30
2018-09-11T22:18:59.436Z,2.73
2018-09-11T22:21:27.662Z,3.07
2018-09-11T22:23:55.948Z,3.00
2018-09-11T22:26:24.211Z,3.10
2018-09-11T22:28:52.487Z,3.40
2018-09-11T22:31:20.762Z,3.13
2018-09-11T22:33:49.031Z,3.07
2018-09-11T22:36:17.342Z,2.93
2018-09-11T22:38:45.618Z,3.10
2018-09-11T22:41:13.897Z,3.00
2018-09-11T22:43:42.191Z,2.80
2018-09-11T22:46:10.513Z,3.07
2018-09-11T22:48:38.787Z,3.30
2018-09-11T22:51:07.422Z,3.20
2018-09-11T22:53:35.995Z,3.23
2018-09-11T22:56:04.264Z,3.60
2018-09-11T22:58:32.557Z,3.20
2018-09-11T23:01:00.828Z,3.30
2018-09-11T23:03:29.120Z,3.50
2018-09-11T23:05:57.392Z,3.70
2018-09-11T23:08:25.667Z,3.23
2018-09-11T23:10:53.974Z,3.40
2018-09-11T23:13:22.237Z,3.97
2018-09-11T23:15:50.499Z,3.50
2018-09-11T23:18:18.755Z,3.80
2018-09-11T23:20:47.038Z,3.40
2018-09-11T23:23:15.308Z,3.60
2018-09-11T23:25:43.608Z,3.73
2018-09-11T23:28:11.859Z,4.00
2018-09-11T23:30:40.116Z,3.77
2018-09-11T23:33:09.207Z,3.70
2018-09-11T23:35:37.492Z,4.00
2018-09-11T23:38:05.759Z,3.87
2018-09-11T23:40:34.037Z,3.57
2018-09-11T23:43:02.297Z,4.03
2018-09-11T23:45:30.847Z,4.00
2018-09-11T23:47:59.110Z,3.67
2018-09-11T23:50:27.397Z,3.87
2018-09-11T23:52:55.660Z,3.70
2018-09-11T23:55:23.948Z,4.17
2018-09-11T23:57:52.215Z,3.90
